sensor_id;sensor_type;location;lat;lon;timestamp;pressure;altitude;pressure_sealevel;temperature;humidity
12624;BME280;6377;42.836;23.998;2022-08-01T00:01:55;95567.09;;;17.35;100.00
12624;BME280;6377;42.836;23.998;2022-08-01T00:04:22;95570.44;;;17.49;100.00
12624;BME280;6377;42.836;23.998;2022-08-01T00:06:52;95582.47;;;17.40;100.00
12624;BME280;6377;42.836;23.998;2022-08-01T00:09:19;95537.53;;;17.12;100.00
12624;BME280;6377;42.836;23.998;2022-08-01T00:11:48;95557.44;;;17.16;100.00
12624;BME280;6377;42.836;23.998;2022-08-01T00:14:16;95512.63;;;16.75;100.00
12624;BME280;6377;42.836;23.998;2022-08-01T00:16:43;95560.47;;;17.01;100.00
12624;BME280;6377;42.836;23.998;2022-08-01T00:19:10;95565.75;;;17.08;100.00
12624;BME280;6377;42.836;23.998;2022-08-01T00:21:37;95558.03;;;17.36;100.00
12624;BME280;6377;42.836;23.998;2022-08-01T00:24:05;95556.34;;;17.60;100.00
12624;BME280;6377;42.836;23.998;2022-08-01T00:26:32;95557.81;;;17.74;100.00
12624;BME280;6377;42.836;23.998;2022-08-01T00:29:01;95565.94;;;17.97;100.00
12624;BME280;6377;42.836;23.998;2022-08-01T00:31:29;95559.88;;;18.20;100.00
12624;BME280;6377;42.836;23.998;2022-08-01T00:33:56;95550.91;;;18.26;100.00
12624;BME280;6377;42.836;23.998;2022-08-01T00:36:23;95434.66;;;17.51;100.00
12624;BME280;6377;42.836;23.998;2022-08-01T00:38:50;95537.59;;;18.08;100.00
12624;BME280;6377;42.836;23.998;2022-08-01T00:41:18;95512.41;;;17.67;100.00
12624;BME280;6377;42.836;23.998;2022-08-01T00:43:45;95545.34;;;17.98;100.00
12624;BME280;6377;42.836;23.998;2022-08-01T00:46:14;95546.78;;;18.12;100.00
12624;BME280;6377;42.836;23.998;2022-08-01T00:48:41;95540.81;;;17.98;100.00
12624;BME280;6377;42.836;23.998;2022-08-01T00:51:08;95514.63;;;18.00;100.00
12624;BME280;6377;42.836;23.998;2022-08-01T00:53:35;95535.06;;;18.13;100.00
12624;BME280;6377;42.836;23.998;2022-08-01T00:56:03;95518.88;;;18.08;100.00
12624;BME280;6377;42.836;23.998;2022-08-01T00:58:31;95536.56;;;18.20;100.00
12624;BME280;6377;42.836;23.998;2022-08-01T01:00:59;95532.22;;;18.37;100.00
12624;BME280;6377;42.836;23.998;2022-08-01T01:03:28;95520.69;;;18.37;100.00
12624;BME280;6377;42.836;23.998;2022-08-01T01:06:02;95518.06;;;18.60;100.00
12624;BME280;6377;42.836;23.998;2022-08-01T01:08:37;95523.00;;;18.33;100.00
12624;BME280;6377;42.836;23.998;2022-08-01T01:11:12;95493.84;;;18.02;100.00
12624;BME280;6377;42.836;23.998;2022-08-01T01:13:46;95513.94;;;18.34;100.00
12624;BME280;6377;42.836;23.998;2022-08-01T01:16:19;95520.59;;;18.02;100.00
12624;BME280;6377;42.836;23.998;2022-08-01T01:18:52;95510.78;;;17.84;100.00
12624;BME280;6377;42.836;23.998;2022-08-01T01:21:35;95501.91;;;17.54;100.00
12624;BME280;6377;42.836;23.998;2022-08-01T01:24:13;95503.81;;;17.47;100.00
12624;BME280;6377;42.836;23.998;2022-08-01T01:26:51;95507.69;;;17.33;100.00
12624;BME280;6377;42.836;23.998;2022-08-01T01:29:24;95474.97;;;17.19;100.00
12624;BME280;6377;42.836;23.998;2022-08-01T01:31:55;95489.66;;;17.28;100.00
12624;BME280;6377;42.836;23.998;2022-08-01T01:34:25;95495.66;;;17.24;100.00
12624;BME280;6377;42.836;23.998;2022-08-01T01:36:54;95490.63;;;17.34;100.00
12624;BME280;6377;42.836;23.998;2022-08-01T01:39:25;95493.78;;;17.43;100.00
12624;BME280;6377;42.836;23.998;2022-08-01T01:41:54;95489.94;;;17.38;100.00
12624;BME280;6377;42.836;23.998;2022-08-01T01:44:23;95496.41;;;17.49;100.00
12624;BME280;6377;42.836;23.998;2022-08-01T01:46:53;95464.03;;;17.21;100.00
12624;BME280;6377;42.836;23.998;2022-08-01T01:49:23;95488.06;;;17.39;100.00
12624;BME280;6377;42.836;23.998;2022-08-01T01:51:54;95486.69;;;17.55;100.00
12624;BME280;6377;42.836;23.998;2022-08-01T01:54:24;95488.72;;;17.53;100.00
12624;BME280;6377;42.836;23.998;2022-08-01T01:56:53;95487.69;;;17.35;100.00
12624;BME280;6377;42.836;23.998;2022-08-01T01:59:25;95485.66;;;17.38;100.00
12624;BME280;6377;42.836;23.998;2022-08-01T02:01:55;95476.50;;;17.27;100.00
12624;BME280;6377;42.836;23.998;2022-08-01T02:04:27;95442.38;;;17.11;100.00
12624;BME280;6377;42.836;23.998;2022-08-01T02:06:55;95483.81;;;17.20;100.00
12624;BME280;6377;42.836;23.998;2022-08-01T02:09:26;95478.66;;;17.18;100.00
12624;BME280;6377;42.836;23.998;2022-08-01T02:11:55;95462.94;;;17.10;100.00
12624;BME280;6377;42.836;23.998;2022-08-01T02:14:25;95472.81;;;17.28;100.00
12624;BME280;6377;42.836;23.998;2022-08-01T02:16:54;95477.00;;;17.35;100.00
12624;BME280;6377;42.836;23.998;2022-08-01T02:19:24;95462.88;;;17.17;100.00
12624;BME280;6377;42.836;23.998;2022-08-01T02:21:56;95473.81;;;17.45;100.00
12624;BME280;6377;42.836;23.998;2022-08-01T02:24:31;95474.19;;;17.30;100.00
12624;BME280;6377;42.836;23.998;2022-08-01T02:27:06;95464.47;;;17.36;100.00
12624;BME280;6377;42.836;23.998;2022-08-01T02:29:40;95462.69;;;17.30;100.00
12624;BME280;6377;42.836;23.998;2022-08-01T02:32:13;95470.28;;;16.97;100.00
12624;BME280;6377;42.836;23.998;2022-08-01T02:34:46;95451.44;;;16.92;100.00
12624;BME280;6377;42.836;23.998;2022-08-01T02:37:14;95471.34;;;17.14;100.00
12624;BME280;6377;42.836;23.998;2022-08-01T02:39:44;95437.03;;;16.93;100.00
12624;BME280;6377;42.836;23.998;2022-08-01T02:42:14;95455.59;;;16.69;100.00
12624;BME280;6377;42.836;23.998;2022-08-01T02:44:47;95441.47;;;16.62;100.00
12624;BME280;6377;42.836;23.998;2022-08-01T02:47:16;95463.66;;;16.63;100.00
12624;BME280;6377;42.836;23.998;2022-08-01T02:49:47;95459.94;;;16.39;100.00
12624;BME280;6377;42.836;23.998;2022-08-01T02:52:16;95407.34;;;16.21;100.00
12624;BME280;6377;42.836;23.998;2022-08-01T02:54:48;95442.59;;;16.55;100.00
12624;BME280;6377;42.836;23.998;2022-08-01T02:57:18;95446.00;;;16.80;100.00
12624;BME280;6377;42.836;23.998;2022-08-01T02:59:49;95455.69;;;16.99;100.00
12624;BME280;6377;42.836;23.998;2022-08-01T03:02:19;95462.34;;;16.90;100.00
12624;BME280;6377;42.836;23.998;2022-08-01T03:04:47;95452.19;;;16.80;100.00
12624;BME280;6377;42.836;23.998;2022-08-01T03:07:17;95467.47;;;17.10;100.00
12624;BME280;6377;42.836;23.998;2022-08-01T03:09:46;95466.00;;;17.14;100.00
12624;BME280;6377;42.836;23.998;2022-08-01T03:12:17;95470.66;;;17.00;100.00
12624;BME280;6377;42.836;23.998;2022-08-01T03:14:47;95419.59;;;16.72;100.00
12624;BME280;6377;42.836;23.998;2022-08-01T03:17:18;95465.53;;;16.80;100.00
12624;BME280;6377;42.836;23.998;2022-08-01T03:19:48;95430.66;;;16.51;100.00
12624;BME280;6377;42.836;23.998;2022-08-01T03:22:17;95467.28;;;16.68;100.00
12624;BME280;6377;42.836;23.998;2022-08-01T03:24:47;95412.03;;;16.69;100.00
12624;BME280;6377;42.836;23.998;2022-08-01T03:27:18;95451.50;;;17.03;100.00
12624;BME280;6377;42.836;23.998;2022-08-01T03:29:46;95470.88;;;16.99;100.00
12624;BME280;6377;42.836;23.998;2022-08-01T03:32:16;95458.72;;;16.85;100.00
12624;BME280;6377;42.836;23.998;2022-08-01T03:34:45;95453.66;;;16.58;100.00
12624;BME280;6377;42.836;23.998;2022-08-01T03:37:19;95448.09;;;16.53;100.00
12624;BME280;6377;42.836;23.998;2022-08-01T03:39:54;95460.41;;;16.79;100.00
12624;BME280;6377;42.836;23.998;2022-08-01T03:42:26;95466.34;;;16.81;100.00
12624;BME280;6377;42.836;23.998;2022-08-01T03:44:59;95446.75;;;16.44;100.00
12624;BME280;6377;42.836;23.998;2022-08-01T03:47:32;95465.63;;;16.49;100.00
12624;BME280;6377;42.836;23.998;2022-08-01T03:50:02;95476.28;;;16.24;100.00
12624;BME280;6377;42.836;23.998;2022-08-01T03:52:33;95469.03;;;16.07;100.00
12624;BME280;6377;42.836;23.998;2022-08-01T03:58:13;95406.69;;;15.77;100.00
12624;BME280;6377;42.836;23.998;2022-08-01T04:01:01;95389.97;;;15.63;100.00
12624;BME280;6377;42.836;23.998;2022-08-01T04:03:30;95395.50;;;15.93;100.00
12624;BME280;6377;42.836;23.998;2022-08-01T04:05:57;95409.44;;;16.19;100.00
12624;BME280;6377;42.836;23.998;2022-08-01T04:08:34;95414.38;;;16.41;100.00
12624;BME280;6377;42.836;23.998;2022-08-01T04:11:02;95418.03;;;16.64;100.00
12624;BME280;6377;42.836;23.998;2022-08-01T04:13:30;95353.38;;;16.19;100.00
12624;BME280;6377;42.836;23.998;2022-08-01T04:15:58;95356.22;;;16.43;100.00
12624;BME280;6377;42.836;23.998;2022-08-01T04:18:25;95399.34;;;16.83;100.00
12624;BME280;6377;42.836;23.998;2022-08-01T04:20:57;95313.22;;;16.33;100.00
12624;BME280;6377;42.836;23.998;2022-08-01T04:23:26;95382.25;;;16.47;100.00
12624;BME280;6377;42.836;23.998;2022-08-01T04:25:55;95397.63;;;16.88;100.00
12624;BME280;6377;42.836;23.998;2022-08-01T04:28:24;95403.97;;;17.23;100.00
12624;BME280;6377;42.836;23.998;2022-08-01T04:30:54;95465.13;;;17.79;100.00
12624;BME280;6377;42.836;23.998;2022-08-01T04:33:22;95418.53;;;17.27;100.00
12624;BME280;6377;42.836;23.998;2022-08-01T04:35:53;95458.34;;;17.65;100.00
12624;BME280;6377;42.836;23.998;2022-08-01T04:38:25;95431.63;;;17.29;100.00
12624;BME280;6377;42.836;23.998;2022-08-01T04:40:53;95453.88;;;17.11;100.00
12624;BME280;6377;42.836;23.998;2022-08-01T04:43:21;95455.25;;;17.32;100.00
12624;BME280;6377;42.836;23.998;2022-08-01T04:45:50;95460.66;;;17.62;100.00
12624;BME280;6377;42.836;23.998;2022-08-01T04:48:18;95450.91;;;17.67;100.00
12624;BME280;6377;42.836;23.998;2022-08-01T04:50:46;95463.22;;;17.98;100.00
12624;BME280;6377;42.836;23.998;2022-08-01T04:53:16;95452.81;;;18.31;100.00
12624;BME280;6377;42.836;23.998;2022-08-01T04:55:43;95433.25;;;18.19;100.00
12624;BME280;6377;42.836;23.998;2022-08-01T04:58:11;95452.72;;;18.50;100.00
12624;BME280;6377;42.836;23.998;2022-08-01T05:00:39;95419.72;;;18.26;100.00
12624;BME280;6377;42.836;23.998;2022-08-01T05:03:06;95346.97;;;17.94;100.00
12624;BME280;6377;42.836;23.998;2022-08-01T05:05:33;95424.97;;;18.44;100.00
12624;BME280;6377;42.836;23.998;2022-08-01T05:08:01;95445.50;;;18.73;100.00
12624;BME280;6377;42.836;23.998;2022-08-01T05:10:29;95450.97;;;18.90;100.00
12624;BME280;6377;42.836;23.998;2022-08-01T05:12:57;95441.84;;;19.02;100.00
12624;BME280;6377;42.836;23.998;2022-08-01T05:15:24;95442.75;;;19.08;100.00
12624;BME280;6377;42.836;23.998;2022-08-01T05:17:52;95435.44;;;19.03;100.00
12624;BME280;6377;42.836;23.998;2022-08-01T05:20:19;95366.09;;;18.56;100.00
12624;BME280;6377;42.836;23.998;2022-08-01T05:22:46;95384.78;;;18.79;100.00
12624;BME280;6377;42.836;23.998;2022-08-01T05:25:13;95284.28;;;17.90;100.00
12624;BME280;6377;42.836;23.998;2022-08-01T05:27:42;95443.25;;;18.93;100.00
12624;BME280;6377;42.836;23.998;2022-08-01T05:30:10;95442.00;;;18.96;100.00
12624;BME280;6377;42.836;23.998;2022-08-01T05:32:37;95447.91;;;19.10;100.00
12624;BME280;6377;42.836;23.998;2022-08-01T05:35:06;95390.97;;;18.79;100.00
12624;BME280;6377;42.836;23.998;2022-08-01T05:37:33;95441.00;;;19.25;100.00
12624;BME280;6377;42.836;23.998;2022-08-01T05:40:01;95449.72;;;19.21;100.00
12624;BME280;6377;42.836;23.998;2022-08-01T05:42:28;95443.81;;;19.19;100.00
12624;BME280;6377;42.836;23.998;2022-08-01T05:44:57;95441.34;;;19.17;100.00
12624;BME280;6377;42.836;23.998;2022-08-01T05:47:24;95440.22;;;19.13;100.00
12624;BME280;6377;42.836;23.998;2022-08-01T05:49:51;95450.69;;;19.15;100.00
12624;BME280;6377;42.836;23.998;2022-08-01T05:52:18;95444.84;;;19.18;100.00
12624;BME280;6377;42.836;23.998;2022-08-01T05:54:45;95450.00;;;19.19;100.00
12624;BME280;6377;42.836;23.998;2022-08-01T05:57:13;95465.81;;;19.21;100.00
12624;BME280;6377;42.836;23.998;2022-08-01T05:59:40;95314.72;;;18.47;100.00
12624;BME280;6377;42.836;23.998;2022-08-01T06:02:08;95435.16;;;19.40;100.00
12624;BME280;6377;42.836;23.998;2022-08-01T06:04:36;95428.72;;;19.41;100.00
12624;BME280;6377;42.836;23.998;2022-08-01T06:07:03;95445.16;;;19.73;100.00
12624;BME280;6377;42.836;23.998;2022-08-01T06:09:30;95442.97;;;19.70;100.00
12624;BME280;6377;42.836;23.998;2022-08-01T06:11:58;95451.66;;;19.77;100.00
12624;BME280;6377;42.836;23.998;2022-08-01T06:14:25;95433.09;;;19.87;100.00
12624;BME280;6377;42.836;23.998;2022-08-01T06:16:52;95433.00;;;19.98;100.00
12624;BME280;6377;42.836;23.998;2022-08-01T06:19:21;95453.59;;;20.09;100.00
12624;BME280;6377;42.836;23.998;2022-08-01T06:21:48;95444.00;;;20.13;100.00
12624;BME280;6377;42.836;23.998;2022-08-01T06:24:15;95310.25;;;19.32;100.00
12624;BME280;6377;42.836;23.998;2022-08-01T06:26:42;95441.31;;;20.13;100.00
12624;BME280;6377;42.836;23.998;2022-08-01T06:29:09;95448.38;;;20.20;100.00
12624;BME280;6377;42.836;23.998;2022-08-01T06:31:36;95439.28;;;20.21;100.00
12624;BME280;6377;42.836;23.998;2022-08-01T06:34:04;95449.97;;;20.32;100.00
12624;BME280;6377;42.836;23.998;2022-08-01T06:36:35;95401.28;;;20.12;100.00
12624;BME280;6377;42.836;23.998;2022-08-01T06:39:03;95387.94;;;19.84;100.00
12624;BME280;6377;42.836;23.998;2022-08-01T06:41:30;95432.03;;;20.21;100.00
12624;BME280;6377;42.836;23.998;2022-08-01T06:43:57;95411.19;;;20.11;100.00
12624;BME280;6377;42.836;23.998;2022-08-01T06:46:27;95388.00;;;20.05;100.00
12624;BME280;6377;42.836;23.998;2022-08-01T06:48:55;95408.63;;;20.17;100.00
12624;BME280;6377;42.836;23.998;2022-08-01T06:51:25;95371.09;;;20.05;100.00
12624;BME280;6377;42.836;23.998;2022-08-01T06:53:54;95443.28;;;20.68;100.00
12624;BME280;6377;42.836;23.998;2022-08-01T06:56:21;95437.56;;;20.81;100.00
12624;BME280;6377;42.836;23.998;2022-08-01T06:58:49;95445.09;;;21.01;99.29
12624;BME280;6377;42.836;23.998;2022-08-01T07:01:17;95437.28;;;21.16;100.00
12624;BME280;6377;42.836;23.998;2022-08-01T07:03:44;95352.72;;;20.68;99.71
12624;BME280;6377;42.836;23.998;2022-08-01T07:06:11;95432.13;;;21.36;100.00
12624;BME280;6377;42.836;23.998;2022-08-01T07:08:40;95402.41;;;21.26;93.92
12624;BME280;6377;42.836;23.998;2022-08-01T07:11:09;95444.97;;;21.77;92.06
12624;BME280;6377;42.836;23.998;2022-08-01T07:13:36;95425.06;;;21.78;85.39
12624;BME280;6377;42.836;23.998;2022-08-01T07:16:04;95448.75;;;22.03;83.42
12624;BME280;6377;42.836;23.998;2022-08-01T07:18:31;95447.03;;;22.19;82.27
12624;BME280;6377;42.836;23.998;2022-08-01T07:20:58;95333.50;;;21.47;81.41
12624;BME280;6377;42.836;23.998;2022-08-01T07:23:26;95399.56;;;21.86;82.33
12624;BME280;6377;42.836;23.998;2022-08-01T07:25:53;95459.22;;;22.26;80.46
12624;BME280;6377;42.836;23.998;2022-08-01T07:28:22;95450.97;;;22.38;77.49
12624;BME280;6377;42.836;23.998;2022-08-01T07:30:49;95439.19;;;22.49;81.32
12624;BME280;6377;42.836;23.998;2022-08-01T07:33:17;95453.47;;;22.50;74.20
12624;BME280;6377;42.836;23.998;2022-08-01T07:35:44;95423.16;;;22.32;66.58
12624;BME280;6377;42.836;23.998;2022-08-01T07:38:11;95446.75;;;22.52;69.46
12624;BME280;6377;42.836;23.998;2022-08-01T07:40:40;95448.38;;;22.53;73.64
12624;BME280;6377;42.836;23.998;2022-08-01T07:43:08;95443.81;;;22.54;71.10
12624;BME280;6377;42.836;23.998;2022-08-01T07:45:36;95451.69;;;22.60;69.46
12624;BME280;6377;42.836;23.998;2022-08-01T07:48:05;95450.34;;;22.63;67.56
12624;BME280;6377;42.836;23.998;2022-08-01T07:50:33;95385.31;;;22.17;66.32
12624;BME280;6377;42.836;23.998;2022-08-01T07:53:00;95450.19;;;22.74;69.93
12624;BME280;6377;42.836;23.998;2022-08-01T07:55:28;95454.28;;;22.82;68.20
12624;BME280;6377;42.836;23.998;2022-08-01T07:57:55;95457.00;;;22.87;66.38
12624;BME280;6377;42.836;23.998;2022-08-01T08:00:22;95455.13;;;22.87;63.09
12624;BME280;6377;42.836;23.998;2022-08-01T08:02:51;95436.72;;;22.74;64.49
12624;BME280;6377;42.836;23.998;2022-08-01T08:05:19;95464.13;;;23.03;62.35
12624;BME280;6377;42.836;23.998;2022-08-01T08:07:46;95444.72;;;23.06;59.71
12624;BME280;6377;42.836;23.998;2022-08-01T08:10:14;95462.34;;;23.19;62.72
12624;BME280;6377;42.836;23.998;2022-08-01T08:12:41;95451.97;;;23.01;62.09
12624;BME280;6377;42.836;23.998;2022-08-01T08:15:09;95463.94;;;23.15;60.74
12624;BME280;6377;42.836;23.998;2022-08-01T08:17:37;95460.50;;;23.29;56.77
12624;BME280;6377;42.836;23.998;2022-08-01T08:20:07;95342.81;;;22.66;55.60
12624;BME280;6377;42.836;23.998;2022-08-01T08:22:36;95452.66;;;23.28;56.66
12624;BME280;6377;42.836;23.998;2022-08-01T08:25:04;95438.59;;;23.21;57.02
12624;BME280;6377;42.836;23.998;2022-08-01T08:27:32;95453.84;;;23.47;55.17
12624;BME280;6377;42.836;23.998;2022-08-01T08:29:59;95430.75;;;23.19;55.40
12624;BME280;6377;42.836;23.998;2022-08-01T08:32:26;95411.63;;;23.21;55.50
12624;BME280;6377;42.836;23.998;2022-08-01T08:34:54;95433.09;;;23.53;54.74
12624;BME280;6377;42.836;23.998;2022-08-01T08:37:23;95446.97;;;23.86;56.19
12624;BME280;6377;42.836;23.998;2022-08-01T08:39:50;95438.06;;;23.96;51.24
12624;BME280;6377;42.836;23.998;2022-08-01T08:42:18;95443.81;;;24.15;50.29
12624;BME280;6377;42.836;23.998;2022-08-01T08:44:45;95451.66;;;24.26;52.29
12624;BME280;6377;42.836;23.998;2022-08-01T08:47:13;95458.66;;;24.12;49.72
12624;BME280;6377;42.836;23.998;2022-08-01T08:49:42;95440.22;;;23.94;52.72
12624;BME280;6377;42.836;23.998;2022-08-01T08:52:11;95454.50;;;23.84;50.44
12624;BME280;6377;42.836;23.998;2022-08-01T08:54:41;95436.16;;;23.81;50.49
12624;BME280;6377;42.836;23.998;2022-08-01T08:57:09;95436.47;;;24.05;49.50
12624;BME280;6377;42.836;23.998;2022-08-01T08:59:38;95437.34;;;24.46;52.25
12624;BME280;6377;42.836;23.998;2022-08-01T09:02:07;95434.06;;;24.69;49.74
12624;BME280;6377;42.836;23.998;2022-08-01T09:04:35;95438.09;;;25.07;48.20
12624;BME280;6377;42.836;23.998;2022-08-01T09:07:05;95405.94;;;24.90;46.38
12624;BME280;6377;42.836;23.998;2022-08-01T09:09:33;95412.72;;;24.88;48.60
12624;BME280;6377;42.836;23.998;2022-08-01T09:12:03;95393.22;;;25.01;46.42
12624;BME280;6377;42.836;23.998;2022-08-01T09:14:30;95435.59;;;25.36;43.54
12624;BME280;6377;42.836;23.998;2022-08-01T09:17:03;95441.31;;;25.24;43.04
12624;BME280;6377;42.836;23.998;2022-08-01T09:19:36;95434.91;;;24.95;43.60
12624;BME280;6377;42.836;23.998;2022-08-01T09:22:06;95450.06;;;24.86;43.78
12624;BME280;6377;42.836;23.998;2022-08-01T09:24:34;95444.09;;;24.69;43.76
12624;BME280;6377;42.836;23.998;2022-08-01T09:27:16;95439.19;;;24.96;43.80
12624;BME280;6377;42.836;23.998;2022-08-01T09:29:43;95448.09;;;25.12;44.44
12624;BME280;6377;42.836;23.998;2022-08-01T09:32:11;95320.56;;;23.98;43.47
12624;BME280;6377;42.836;23.998;2022-08-01T09:34:38;95426.25;;;24.52;45.16
12624;BME280;6377;42.836;23.998;2022-08-01T09:37:06;95433.84;;;24.86;47.85
12624;BME280;6377;42.836;23.998;2022-08-01T09:39:34;95428.91;;;24.78;46.10
12624;BME280;6377;42.836;23.998;2022-08-01T09:42:20;95427.06;;;24.88;43.77
12624;BME280;6377;42.836;23.998;2022-08-01T09:44:47;95367.25;;;24.75;45.17
12624;BME280;6377;42.836;23.998;2022-08-01T09:47:15;95379.34;;;25.18;46.48
12624;BME280;6377;42.836;23.998;2022-08-01T09:49:43;95428.44;;;25.70;43.72
12624;BME280;6377;42.836;23.998;2022-08-01T09:52:13;95411.16;;;25.56;42.54
12624;BME280;6377;42.836;23.998;2022-08-01T09:54:52;95420.84;;;25.67;41.93
12624;BME280;6377;42.836;23.998;2022-08-01T09:57:21;95417.03;;;25.73;45.02
12624;BME280;6377;42.836;23.998;2022-08-01T09:59:57;95422.72;;;25.77;45.10
12624;BME280;6377;42.836;23.998;2022-08-01T10:02:30;95360.50;;;25.61;43.19
12624;BME280;6377;42.836;23.998;2022-08-01T10:04:58;95406.72;;;26.19;42.09
12624;BME280;6377;42.836;23.998;2022-08-01T10:07:25;95386.63;;;26.25;41.01
12624;BME280;6377;42.836;23.998;2022-08-01T10:09:52;95361.50;;;26.14;42.67
12624;BME280;6377;42.836;23.998;2022-08-01T10:12:22;95412.16;;;25.70;41.56
12624;BME280;6377;42.836;23.998;2022-08-01T10:14:51;95405.94;;;25.70;41.83
12624;BME280;6377;42.836;23.998;2022-08-01T10:17:24;95362.81;;;25.83;40.40
12624;BME280;6377;42.836;23.998;2022-08-01T10:19:52;95376.59;;;26.59;41.70
12624;BME280;6377;42.836;23.998;2022-08-01T10:22:23;95405.75;;;27.01;38.81
12624;BME280;6377;42.836;23.998;2022-08-01T10:24:55;95388.16;;;27.46;38.50
12624;BME280;6377;42.836;23.998;2022-08-01T10:27:25;95350.88;;;27.70;38.16
12624;BME280;6377;42.836;23.998;2022-08-01T10:29:56;95387.84;;;28.27;37.55
12624;BME280;6377;42.836;23.998;2022-08-01T10:32:29;95338.41;;;28.07;37.04
12624;BME280;6377;42.836;23.998;2022-08-01T10:34:56;95338.16;;;28.22;36.22
12624;BME280;6377;42.836;23.998;2022-08-01T10:37:24;95337.28;;;27.89;36.55
12624;BME280;6377;42.836;23.998;2022-08-01T10:39:54;95372.34;;;27.91;37.22
12624;BME280;6377;42.836;23.998;2022-08-01T10:42:22;95372.16;;;28.06;37.75
12624;BME280;6377;42.836;23.998;2022-08-01T10:44:51;95332.75;;;28.03;36.87
12624;BME280;6377;42.836;23.998;2022-08-01T10:47:24;95357.44;;;28.07;38.25
12624;BME280;6377;42.836;23.998;2022-08-01T10:49:58;95348.28;;;27.98;37.91
12624;BME280;6377;42.836;23.998;2022-08-01T10:52:29;95325.91;;;27.87;38.60
12624;BME280;6377;42.836;23.998;2022-08-01T10:55:02;95368.44;;;28.66;36.79
12624;BME280;6377;42.836;23.998;2022-08-01T10:57:41;95362.53;;;28.91;36.43
12624;BME280;6377;42.836;23.998;2022-08-01T11:00:16;95349.84;;;28.87;36.39
12624;BME280;6377;42.836;23.998;2022-08-01T11:02:57;95340.69;;;29.37;35.37
12624;BME280;6377;42.836;23.998;2022-08-01T11:05:27;95363.16;;;29.70;33.60
12624;BME280;6377;42.836;23.998;2022-08-01T11:07:55;95356.72;;;30.02;33.63
12624;BME280;6377;42.836;23.998;2022-08-01T11:10:24;95337.00;;;29.69;33.66
12624;BME280;6377;42.836;23.998;2022-08-01T11:12:53;95360.38;;;29.34;35.58
12624;BME280;6377;42.836;23.998;2022-08-01T11:15:23;95367.22;;;29.45;34.53
12624;BME280;6377;42.836;23.998;2022-08-01T11:17:55;95368.91;;;29.82;35.72
12624;BME280;6377;42.836;23.998;2022-08-01T11:20:24;95358.78;;;29.83;36.17
12624;BME280;6377;42.836;23.998;2022-08-01T11:23:25;95354.56;;;30.13;32.85
12624;BME280;6377;42.836;23.998;2022-08-01T11:26:11;95359.47;;;30.69;32.40
12624;BME280;6377;42.836;23.998;2022-08-01T11:28:44;95363.38;;;30.32;31.55
12624;BME280;6377;42.836;23.998;2022-08-01T11:31:40;95347.97;;;30.49;31.93
12624;BME280;6377;42.836;23.998;2022-08-01T11:34:07;95356.34;;;30.84;31.25
12624;BME280;6377;42.836;23.998;2022-08-01T11:36:35;95344.56;;;30.75;33.14
12624;BME280;6377;42.836;23.998;2022-08-01T11:39:14;95326.78;;;29.75;35.39
12624;BME280;6377;42.836;23.998;2022-08-01T11:41:43;95308.44;;;29.67;34.96
12624;BME280;6377;42.836;23.998;2022-08-01T11:44:12;95300.69;;;29.96;35.74
12624;BME280;6377;42.836;23.998;2022-08-01T11:46:50;95318.34;;;30.21;34.44
12624;BME280;6377;42.836;23.998;2022-08-01T11:49:44;95309.53;;;30.68;32.83
12624;BME280;6377;42.836;23.998;2022-08-01T11:52:14;95330.50;;;31.69;32.33
12624;BME280;6377;42.836;23.998;2022-08-01T11:54:43;95342.28;;;32.03;29.99
12624;BME280;6377;42.836;23.998;2022-08-01T11:57:12;95316.47;;;31.53;30.16
12624;BME280;6377;42.836;23.998;2022-08-01T11:59:41;95282.44;;;31.20;30.68
12624;BME280;6377;42.836;23.998;2022-08-01T12:02:21;95300.25;;;31.08;31.44
12624;BME280;6377;42.836;23.998;2022-08-01T12:04:52;95320.94;;;31.40;30.31
12624;BME280;6377;42.836;23.998;2022-08-01T12:07:24;95287.09;;;31.11;32.81
12624;BME280;6377;42.836;23.998;2022-08-01T12:10:07;95323.09;;;31.21;32.11
12624;BME280;6377;42.836;23.998;2022-08-01T12:12:43;95331.03;;;30.61;33.74
12624;BME280;6377;42.836;23.998;2022-08-01T12:15:11;95335.78;;;30.33;34.12
12624;BME280;6377;42.836;23.998;2022-08-01T12:17:42;95307.16;;;30.00;32.23
12624;BME280;6377;42.836;23.998;2022-08-01T12:20:12;95290.16;;;29.81;33.15
12624;BME280;6377;42.836;23.998;2022-08-01T12:22:40;95338.19;;;29.90;33.96
12624;BME280;6377;42.836;23.998;2022-08-01T12:25:10;95325.91;;;29.66;34.66
12624;BME280;6377;42.836;23.998;2022-08-01T12:27:39;95324.91;;;29.48;35.39
12624;BME280;6377;42.836;23.998;2022-08-01T12:30:09;95329.03;;;29.73;34.18
12624;BME280;6377;42.836;23.998;2022-08-01T12:32:38;95274.97;;;29.39;35.15
12624;BME280;6377;42.836;23.998;2022-08-01T12:35:09;95315.00;;;30.02;33.10
12624;BME280;6377;42.836;23.998;2022-08-01T12:37:37;95267.47;;;30.16;32.79
12624;BME280;6377;42.836;23.998;2022-08-01T12:40:12;95310.69;;;31.06;32.25
12624;BME280;6377;42.836;23.998;2022-08-01T12:42:41;95310.81;;;31.41;31.76
12624;BME280;6377;42.836;23.998;2022-08-01T12:45:12;95313.25;;;31.51;31.74
12624;BME280;6377;42.836;23.998;2022-08-01T12:47:40;95311.97;;;31.57;32.06
12624;BME280;6377;42.836;23.998;2022-08-01T12:50:11;95291.44;;;31.94;32.30
12624;BME280;6377;42.836;23.998;2022-08-01T12:52:40;95314.66;;;32.86;31.55
12624;BME280;6377;42.836;23.998;2022-08-01T12:55:10;95318.75;;;32.54;31.85
12624;BME280;6377;42.836;23.998;2022-08-01T12:57:40;95315.94;;;32.80;30.65
12624;BME280;6377;42.836;23.998;2022-08-01T13:00:21;95311.66;;;32.53;30.84
12624;BME280;6377;42.836;23.998;2022-08-01T13:03:00;95310.56;;;33.00;29.23
12624;BME280;6377;42.836;23.998;2022-08-01T13:05:41;95311.63;;;32.79;29.61
12624;BME280;6377;42.836;23.998;2022-08-01T13:08:10;95317.16;;;32.01;30.20
12624;BME280;6377;42.836;23.998;2022-08-01T13:10:37;95316.81;;;31.12;30.67
12624;BME280;6377;42.836;23.998;2022-08-01T13:13:04;95317.25;;;30.22;32.44